createdAt,value
2018-12-04T00:00:14.966Z,154.07
2018-12-04T00:02:44.381Z,164.33
2018-12-04T00:05:13.671Z,159.63
2018-12-04T00:07:43.247Z,164.53
2018-12-04T00:10:13.140Z,145.00
2018-12-04T00:12:42.700Z,154.67
2018-12-04T00:15:12.562Z,144.70
2018-12-04T00:17:42.124Z,143.77
2018-12-04T00:20:12.305Z,143.30
2018-12-04T00:22:41.764Z,137.77
2018-12-04T00:25:11.414Z,139.20
2018-12-04T00:27:40.976Z,129.87
2018-12-04T00:30:10.748Z,127.97
2018-12-04T00:32:40.792Z,130.13
2018-12-04T00:35:10.406Z,129.73
2018-12-04T00:37:40.012Z,122.30
2018-12-04T00:40:10.204Z,130.63
2018-12-04T00:42:39.644Z,130.50
2018-12-04T00:45:10.355Z,124.70
2018-12-04T00:47:39.883Z,127.50
2018-12-04T00:50:09.599Z,112.00
2018-12-04T00:52:39.338Z,114.40
2018-12-04T00:55:08.879Z,113.90
2018-12-04T00:57:38.561Z,121.83
2018-12-04T01:00:10.005Z,114.57
2018-12-04T01:02:40.657Z,132.47
2018-12-04T01:05:10.164Z,117.17
2018-12-04T01:07:39.700Z,114.43
2018-12-04T01:10:09.200Z,115.97
2018-12-04T01:12:38.492Z,115.20
2018-12-04T01:15:08.213Z,114.17
2018-12-04T01:17:37.979Z,119.43
2018-12-04T01:20:07.609Z,115.37
2018-12-04T01:22:37.115Z,119.80
2018-12-04T01:25:07.117Z,117.83
2018-12-04T01:27:36.440Z,125.20
2018-12-04T01:30:07.105Z,137.63
2018-12-04T01:32:36.520Z,144.47
2018-12-04T01:35:06.374Z,143.57
2018-12-04T01:37:35.853Z,140.90
2018-12-04T01:40:05.914Z,137.33
2018-12-04T01:42:35.384Z,132.80
2018-12-04T01:45:05.911Z,140.10
2018-12-04T01:47:36.966Z,150.53
2018-12-04T01:50:06.472Z,143.27
2018-12-04T01:52:36.289Z,143.10
2018-12-04T01:55:06.142Z,142.87
2018-12-04T01:57:35.593Z,147.40
2018-12-04T02:00:05.526Z,140.43
2018-12-04T02:02:35.077Z,152.63
2018-12-04T02:05:04.702Z,140.87
2018-12-04T02:07:34.323Z,147.80
2018-12-04T02:10:04.869Z,152.67
2018-12-04T02:12:34.459Z,128.50
2018-12-04T02:15:04.696Z,123.77
2018-12-04T02:17:34.449Z,118.47
2018-12-04T02:20:03.942Z,119.97
2018-12-04T02:22:33.646Z,99.93
2018-12-04T02:25:03.336Z,98.23
2018-12-04T02:27:33.178Z,101.47
2018-12-04T02:30:03.391Z,102.10
2018-12-04T02:32:32.954Z,102.70
2018-12-04T02:35:02.829Z,105.13
2018-12-04T02:37:32.275Z,103.17
2018-12-04T02:40:01.975Z,109.93
2018-12-04T02:42:31.665Z,108.00
2018-12-04T02:45:01.218Z,108.87
2018-12-04T02:47:30.702Z,103.70
2018-12-04T02:50:00.524Z,103.50
2018-12-04T02:52:29.972Z,105.80
2018-12-04T02:54:59.776Z,93.37
2018-12-04T02:57:29.212Z,98.13
2018-12-04T02:59:58.763Z,98.30
2018-12-04T03:02:28.593Z,97.67
2018-12-04T03:04:58.079Z,99.80
2018-12-04T03:07:27.284Z,98.27
2018-12-04T03:09:56.906Z,102.67
2018-12-04T03:12:26.307Z,99.40
2018-12-04T03:14:55.800Z,98.77
2018-12-04T03:17:25.469Z,100.17
2018-12-04T03:19:54.980Z,93.63
2018-12-04T03:22:24.576Z,100.07
2018-12-04T03:24:54.099Z,100.23
2018-12-04T03:27:23.429Z,104.10
2018-12-04T03:29:53.077Z,104.63
2018-12-04T03:32:22.525Z,99.80
2018-12-04T03:34:52.188Z,107.57
2018-12-04T03:37:21.880Z,99.47
2018-12-04T03:39:51.278Z,108.40
2018-12-04T03:42:21.097Z,97.07
2018-12-04T03:44:50.382Z,101.97
2018-12-04T03:47:19.985Z,100.57
2018-12-04T03:49:49.803Z,95.50
2018-12-04T03:52:19.321Z,99.13
2018-12-04T03:54:48.766Z,95.53
2018-12-04T03:57:18.542Z,100.33
2018-12-04T03:59:47.929Z,94.40
2018-12-04T04:02:17.328Z,94.00
2018-12-04T04:04:47.379Z,97.87
2018-12-04T04:07:16.959Z,94.37
2018-12-04T04:09:46.673Z,92.70
2018-12-04T04:12:16.356Z,97.10
2018-12-04T04:14:45.855Z,96.93
2018-12-04T04:17:15.376Z,98.23
2018-12-04T04:19:51.555Z,91.17
2018-12-04T04:22:20.828Z,91.80
2018-12-04T04:24:50.205Z,94.13
2018-12-04T04:27:19.882Z,93.90
2018-12-04T04:29:49.331Z,90.17
2018-12-04T04:32:18.750Z,87.97
2018-12-04T04:34:48.607Z,92.77
2018-12-04T04:37:17.830Z,95.13
2018-12-04T04:39:47.405Z,95.80
2018-12-04T04:42:17.135Z,95.67
2018-12-04T04:44:46.619Z,96.93
2018-12-04T04:47:16.105Z,93.90
2018-12-04T04:49:46.060Z,89.50
2018-12-04T04:52:15.540Z,91.60
2018-12-04T04:54:44.843Z,94.17
2018-12-04T04:57:15.101Z,89.00
2018-12-04T04:59:44.721Z,91.07
2018-12-04T05:02:14.129Z,88.50
2018-12-04T05:04:44.251Z,88.63
2018-12-04T05:07:13.729Z,87.57
2018-12-04T05:09:43.169Z,86.03
2018-12-04T05:12:12.843Z,88.83
2018-12-04T05:14:42.325Z,84.37
2018-12-04T05:17:12.032Z,83.03
2018-12-04T05:19:41.570Z,86.47
2018-12-04T05:22:11.128Z,86.70
2018-12-04T05:24:40.531Z,82.97
2018-12-04T05:27:09.830Z,82.40
2018-12-04T05:29:39.700Z,81.77
2018-12-04T05:32:09.176Z,77.87
2018-12-04T05:34:38.794Z,76.90
2018-12-04T05:37:08.460Z,85.67
2018-12-04T05:39:37.847Z,86.70
2018-12-04T05:42:07.365Z,83.80
2018-12-04T05:44:36.836Z,86.90
2018-12-04T05:47:06.099Z,77.10
2018-12-04T05:49:35.918Z,72.27
2018-12-04T05:52:05.627Z,78.87
2018-12-04T05:54:35.165Z,82.07
2018-12-04T05:57:04.881Z,81.17
2018-12-04T05:59:34.148Z,85.43
2018-12-04T06:02:03.494Z,87.47
2018-12-04T06:04:34.334Z,93.23
2018-12-04T06:07:03.873Z,92.63
2018-12-04T06:09:33.324Z,97.83
2018-12-04T06:12:03.007Z,98.63
2018-12-04T06:14:32.616Z,96.17
2018-12-04T06:17:02.391Z,97.23
2018-12-04T06:19:32.235Z,93.87
2018-12-04T06:22:02.042Z,94.27
2018-12-04T06:24:31.907Z,101.00
2018-12-04T06:27:01.648Z,98.90
2018-12-04T06:29:31.524Z,97.87
2018-12-04T06:32:01.468Z,104.40
2018-12-04T06:34:31.126Z,107.10
2018-12-04T06:37:00.794Z,104.67
2018-12-04T06:39:30.309Z,101.73
2018-12-04T06:41:59.957Z,102.70
2018-12-04T06:44:30.545Z,111.33
2018-12-04T06:47:00.985Z,112.07
2018-12-04T06:49:30.673Z,112.13
2018-12-04T06:52:00.234Z,120.57
2018-12-04T06:54:29.693Z,118.17
2018-12-04T06:56:59.477Z,117.00
2018-12-04T06:59:29.120Z,109.70
2018-12-04T07:01:58.994Z,110.27
2018-12-04T07:04:28.458Z,103.97
2018-12-04T07:06:57.952Z,110.60
2018-12-04T07:09:27.292Z,112.57
2018-12-04T07:12:02.316Z,118.77
2018-12-04T07:14:28.189Z,130.47
2018-12-04T07:16:57.849Z,132.57
2018-12-04T07:19:27.383Z,129.10
2018-12-04T07:21:56.934Z,127.00
2018-12-04T07:24:26.144Z,117.00
2018-12-04T07:26:56.336Z,123.17
2018-12-04T07:29:25.920Z,112.60
2018-12-04T07:31:55.703Z,107.67
2018-12-04T07:34:25.403Z,99.63
2018-12-04T07:36:55.173Z,104.43
2018-12-04T07:39:25.070Z,97.70
2018-12-04T07:41:55.014Z,103.33
2018-12-04T07:44:24.544Z,104.30
2018-12-04T07:46:54.281Z,101.60
2018-12-04T07:49:24.233Z,105.17
2018-12-04T07:51:53.645Z,104.33
2018-12-04T07:54:23.076Z,103.80
2018-12-04T07:56:52.832Z,102.87
2018-12-04T07:59:22.244Z,95.67
2018-12-04T08:01:51.945Z,98.00
2018-12-04T08:04:21.629Z,94.97
2018-12-04T08:06:51.289Z,94.17
2018-12-04T08:09:21.085Z,92.90
2018-12-04T08:11:50.657Z,90.47
2018-12-04T08:14:20.170Z,101.40
2018-12-04T08:16:49.950Z,100.40
2018-12-04T08:19:19.521Z,102.70
2018-12-04T08:21:49.335Z,101.90
2018-12-04T08:24:18.848Z,106.07
2018-12-04T08:26:48.922Z,103.13
2018-12-04T08:29:19.061Z,99.13
2018-12-04T08:31:48.324Z,107.77
2018-12-04T08:34:18.689Z,103.27
2018-12-04T08:36:48.620Z,100.67
2018-12-04T08:39:18.213Z,106.27
2018-12-04T08:41:47.625Z,102.53
2018-12-04T08:44:17.666Z,101.50
2018-12-04T08:46:46.895Z,97.73
2018-12-04T08:49:16.160Z,87.57
2018-12-04T08:51:45.649Z,93.60
2018-12-04T08:54:15.121Z,90.57
2018-12-04T08:56:44.788Z,92.07
2018-12-04T08:59:14.236Z,96.53
2018-12-04T09:01:43.575Z,94.03
2018-12-04T09:04:13.218Z,92.13
2018-12-04T09:06:42.562Z,94.37
2018-12-04T09:09:12.629Z,88.73
2018-12-04T09:11:42.239Z,89.03
2018-12-04T09:14:11.691Z,85.23
2018-12-04T09:16:41.101Z,88.60
2018-12-04T09:19:11.132Z,86.10
2018-12-04T09:21:40.616Z,89.80
2018-12-04T09:24:10.485Z,93.43
2018-12-04T09:26:39.948Z,93.97
2018-12-04T09:29:09.240Z,92.30
2018-12-04T09:31:38.854Z,90.83
2018-12-04T09:34:08.687Z,90.70
2018-12-04T09:36:38.069Z,88.20
2018-12-04T09:39:08.523Z,91.57
2018-12-04T09:41:39.126Z,90.10
2018-12-04T09:44:08.460Z,86.77
2018-12-04T09:46:37.705Z,93.50
2018-12-04T09:49:07.315Z,96.97
2018-12-04T09:51:37.085Z,97.77
2018-12-04T09:54:06.527Z,96.03
2018-12-04T09:56:36.038Z,93.83
2018-12-04T09:59:05.664Z,98.03
2018-12-04T10:01:35.252Z,95.07
2018-12-04T10:04:04.863Z,93.40
2018-12-04T10:06:34.160Z,107.77
2018-12-04T10:09:03.933Z,101.77
2018-12-04T10:11:33.408Z,101.27
2018-12-04T10:14:03.133Z,106.23
2018-12-04T10:16:32.722Z,110.33
2018-12-04T10:19:02.856Z,99.73
2018-12-04T10:21:32.432Z,106.97
2018-12-04T10:24:01.980Z,104.23
2018-12-04T10:26:31.749Z,100.40
2018-12-04T10:29:01.270Z,98.77
2018-12-04T10:31:31.008Z,95.93
2018-12-04T10:34:00.453Z,96.73
2018-12-04T10:36:29.894Z,95.80
2018-12-04T10:38:59.509Z,98.17
2018-12-04T10:41:29.102Z,99.07
2018-12-04T10:43:58.622Z,100.87
2018-12-04T10:46:28.229Z,106.17
2018-12-04T10:48:57.632Z,103.37
2018-12-04T10:51:27.605Z,98.57
2018-12-04T10:53:57.410Z,101.00
2018-12-04T10:56:26.970Z,99.73
2018-12-04T10:58:56.356Z,97.37
2018-12-04T11:01:31.338Z,97.20
2018-12-04T11:04:00.887Z,109.37
2018-12-04T11:06:30.212Z,98.43
2018-12-04T11:08:59.844Z,100.10
2018-12-04T11:11:29.424Z,100.67
2018-12-04T11:13:59.155Z,101.83
2018-12-04T11:16:29.042Z,104.07
2018-12-04T11:18:58.698Z,107.33
2018-12-04T11:21:28.175Z,105.60
2018-12-04T11:23:57.512Z,116.60
2018-12-04T11:26:27.521Z,119.27
2018-12-04T11:28:57.148Z,114.67
2018-12-04T11:31:26.573Z,111.00
2018-12-04T11:33:55.986Z,115.93
2018-12-04T11:36:25.507Z,111.23
2018-12-04T11:38:55.247Z,115.60
2018-12-04T11:41:24.808Z,122.00
2018-12-04T11:43:54.320Z,126.40
2018-12-04T11:46:23.828Z,123.53
2018-12-04T11:48:53.214Z,132.07
2018-12-04T11:51:22.639Z,135.47
2018-12-04T11:53:52.584Z,134.60
2018-12-04T11:56:22.051Z,132.03
2018-12-04T11:58:51.505Z,133.53
2018-12-04T12:01:26.124Z,133.57
2018-12-04T12:03:55.581Z,129.60
2018-12-04T12:06:25.104Z,130.53
2018-12-04T12:08:54.653Z,138.63
2018-12-04T12:11:23.988Z,134.93
2018-12-04T12:13:53.609Z,129.20
2018-12-04T12:16:23.472Z,134.33
2018-12-04T12:18:52.922Z,133.33
2018-12-04T12:21:22.353Z,138.93
2018-12-04T12:23:52.137Z,135.93
2018-12-04T12:26:21.755Z,132.40
2018-12-04T12:28:51.083Z,141.30
2018-12-04T12:31:20.915Z,140.23
2018-12-04T12:33:50.480Z,140.43
2018-12-04T12:36:19.984Z,137.53
2018-12-04T12:38:49.277Z,134.23
2018-12-04T12:41:18.738Z,135.87
2018-12-04T12:43:48.289Z,136.93
2018-12-04T12:46:18.390Z,141.53
2018-12-04T12:48:47.774Z,139.70
2018-12-04T12:51:17.329Z,140.03
2018-12-04T12:53:46.858Z,144.40
2018-12-04T12:56:16.701Z,152.23
2018-12-04T12:58:46.099Z,153.83
2018-12-04T13:01:15.996Z,176.73
2018-12-04T13:03:45.411Z,178.70
2018-12-04T13:06:15.098Z,174.53
2018-12-04T13:08:44.834Z,182.90
2018-12-04T13:11:14.318Z,172.20
2018-12-04T13:13:43.818Z,164.00
2018-12-04T13:16:13.373Z,167.97
2018-12-04T13:18:42.957Z,157.70
2018-12-04T13:21:12.489Z,155.80
2018-12-04T13:23:42.332Z,149.87
2018-12-04T13:26:11.807Z,149.97
2018-12-04T13:28:41.346Z,151.47
2018-12-04T13:31:11.109Z,142.10
2018-12-04T13:33:40.667Z,140.73
2018-12-04T13:36:10.282Z,140.73
2018-12-04T13:38:39.632Z,137.33
2018-12-04T13:41:09.203Z,148.13
2018-12-04T13:43:38.607Z,156.33
2018-12-04T13:46:08.558Z,147.63
2018-12-04T13:48:38.282Z,157.63
2018-12-04T13:51:07.692Z,150.03
2018-12-04T13:53:37.528Z,144.87
2018-12-04T13:56:07.061Z,143.13
2018-12-04T13:58:36.991Z,145.60
2018-12-04T14:01:06.316Z,156.83
2018-12-04T14:03:35.870Z,156.37
2018-12-04T14:06:05.361Z,165.30
2018-12-04T14:08:35.029Z,177.50
2018-12-04T14:11:04.272Z,166.73
2018-12-04T14:13:34.019Z,165.80
2018-12-04T14:16:03.353Z,141.40
2018-12-04T14:18:32.768Z,146.90
2018-12-04T14:21:02.531Z,162.67
2018-12-04T14:23:31.929Z,169.77
2018-12-04T14:26:01.405Z,176.57
2018-12-04T14:28:31.832Z,167.37
2018-12-04T14:31:01.305Z,165.87
2018-12-04T14:33:30.902Z,166.43
2018-12-04T14:36:00.492Z,175.17
2018-12-04T14:38:30.161Z,192.60
2018-12-04T14:40:59.818Z,218.40
2018-12-04T14:43:29.410Z,223.10
2018-12-04T14:45:59.408Z,220.00
2018-12-04T14:48:28.914Z,221.77
2018-12-04T14:50:58.432Z,223.30
2018-12-04T14:53:28.006Z,220.30
2018-12-04T14:55:57.817Z,217.00
2018-12-04T14:58:27.274Z,216.07
2018-12-04T15:00:56.908Z,220.67
2018-12-04T15:03:26.669Z,232.37
2018-12-04T15:05:56.355Z,219.00
2018-12-04T15:08:26.142Z,240.70
2018-12-04T15:10:55.749Z,246.93
2018-12-04T15:13:26.013Z,231.63
2018-12-04T15:15:55.486Z,220.23
2018-12-04T15:18:25.414Z,215.10
2018-12-04T15:20:54.764Z,222.03
2018-12-04T15:23:24.221Z,195.50
2018-12-04T15:25:54.379Z,217.67
2018-12-04T15:28:23.882Z,242.50
2018-12-04T15:30:53.327Z,244.10
2018-12-04T15:33:22.772Z,238.57
2018-12-04T15:35:52.190Z,233.70
2018-12-04T15:38:21.787Z,243.20
2018-12-04T15:40:51.158Z,202.37
2018-12-04T15:43:20.649Z,214.00
2018-12-04T15:45:50.260Z,218.10
2018-12-04T15:48:19.851Z,228.57
2018-12-04T15:50:49.620Z,234.70
2018-12-04T15:53:19.289Z,222.20
2018-12-04T15:55:49.060Z,185.33
2018-12-04T15:58:18.487Z,197.07
2018-12-04T16:00:48.170Z,198.37
2018-12-04T16:03:17.575Z,194.67
2018-12-04T16:05:47.060Z,196.63
2018-12-04T16:08:17.242Z,192.00
2018-12-04T16:10:46.818Z,196.17
2018-12-04T16:13:17.589Z,188.87
2018-12-04T16:15:47.071Z,195.40
2018-12-04T16:18:16.606Z,197.43
2018-12-04T16:20:46.097Z,264.53
2018-12-04T16:23:16.005Z,213.23
2018-12-04T16:25:45.602Z,213.83
2018-12-04T16:28:15.241Z,218.40
2018-12-04T16:30:44.677Z,203.30
2018-12-04T16:33:14.228Z,197.07
2018-12-04T16:35:43.937Z,185.80
2018-12-04T16:38:13.249Z,197.10
2018-12-04T16:40:42.730Z,191.97
2018-12-04T16:43:12.466Z,187.60
2018-12-04T16:45:41.995Z,196.40
2018-12-04T16:48:11.452Z,212.03
2018-12-04T16:50:41.161Z,211.27
2018-12-04T16:53:10.957Z,215.30
2018-12-04T16:55:40.604Z,207.37
2018-12-04T16:58:10.525Z,220.20
2018-12-04T17:00:40.005Z,215.67
2018-12-04T17:03:09.889Z,192.03
2018-12-04T17:05:39.257Z,204.90
2018-12-04T17:08:09.180Z,201.97
2018-12-04T17:10:38.999Z,196.40
2018-12-04T17:13:08.779Z,195.83
2018-12-04T17:15:38.333Z,208.83
2018-12-04T17:18:08.102Z,222.57
2018-12-04T17:20:37.937Z,243.67
2018-12-04T17:23:07.394Z,273.10
2018-12-04T17:25:37.161Z,263.67
2018-12-04T17:28:06.867Z,258.73
2018-12-04T17:30:36.256Z,262.00
2018-12-04T17:33:05.928Z,266.80
2018-12-04T17:35:35.499Z,299.53
2018-12-04T17:38:04.804Z,309.13
2018-12-04T17:40:34.634Z,311.53
2018-12-04T17:43:04.302Z,343.40
2018-12-04T17:45:33.906Z,375.77
2018-12-04T17:48:03.683Z,377.23
2018-12-04T17:50:33.419Z,341.37
2018-12-04T17:53:02.889Z,341.27
2018-12-04T17:55:32.984Z,337.43
2018-12-04T17:58:04.302Z,327.80
2018-12-04T18:00:34.336Z,275.90
2018-12-04T18:03:03.635Z,236.50
2018-12-04T18:05:34.576Z,225.60
2018-12-04T18:08:04.161Z,216.53
2018-12-04T18:10:33.531Z,205.47
2018-12-04T18:13:03.066Z,224.87
2018-12-04T18:15:34.571Z,216.87
2018-12-04T18:18:05.384Z,214.67
2018-12-04T18:20:34.941Z,214.10
2018-12-04T18:23:04.490Z,217.13
2018-12-04T18:25:34.326Z,244.80
2018-12-04T18:28:03.732Z,237.17
2018-12-04T18:30:33.648Z,238.30
2018-12-04T18:33:02.978Z,240.00
2018-12-04T18:35:32.440Z,253.50
2018-12-04T18:38:02.296Z,250.87
2018-12-04T18:40:32.191Z,271.87
2018-12-04T18:43:01.542Z,266.10
2018-12-04T18:45:32.727Z,264.20
2018-12-04T18:48:02.396Z,278.73
2018-12-04T18:50:32.242Z,269.00
2018-12-04T18:53:01.780Z,253.67
2018-12-04T18:55:31.324Z,250.70
2018-12-04T18:58:00.585Z,241.97
2018-12-04T19:00:30.057Z,246.10
2018-12-04T19:02:59.740Z,250.80
2018-12-04T19:05:29.320Z,274.23
2018-12-04T19:07:58.647Z,275.77
2018-12-04T19:10:28.588Z,267.30
2018-12-04T19:12:58.171Z,275.90
2018-12-04T19:15:27.960Z,283.77
2018-12-04T19:17:57.718Z,295.57
2018-12-04T19:20:26.930Z,311.23
2018-12-04T19:22:56.453Z,323.50
2018-12-04T19:25:26.125Z,319.77
2018-12-04T19:27:55.545Z,311.07
2018-12-04T19:30:25.489Z,308.33
2018-12-04T19:32:54.935Z,379.13
2018-12-04T19:35:24.376Z,343.37
2018-12-04T19:37:55.694Z,285.07
2018-12-04T19:40:25.298Z,264.23
2018-12-04T19:42:55.143Z,263.93
2018-12-04T19:45:24.629Z,266.27
2018-12-04T19:47:53.978Z,271.97
2018-12-04T19:50:23.746Z,262.20
2018-12-04T19:52:53.237Z,263.87
2018-12-04T19:55:22.800Z,258.00
2018-12-04T19:57:52.331Z,260.03
2018-12-04T20:00:21.962Z,268.53
2018-12-04T20:02:51.341Z,283.80
2018-12-04T20:05:21.292Z,285.33
2018-12-04T20:07:50.780Z,279.73
2018-12-04T20:10:20.187Z,273.90
2018-12-04T20:12:49.644Z,277.53
2018-12-04T20:15:19.045Z,271.00
2018-12-04T20:17:48.818Z,265.20
2018-12-04T20:20:18.181Z,243.33
2018-12-04T20:22:47.841Z,245.63
2018-12-04T20:25:17.412Z,267.27
2018-12-04T20:27:47.252Z,266.40
2018-12-04T20:30:16.998Z,255.10
2018-12-04T20:32:46.188Z,252.07
2018-12-04T20:35:16.116Z,262.83
2018-12-04T20:37:45.536Z,270.60
2018-12-04T20:40:14.972Z,285.67
2018-12-04T20:42:44.874Z,284.93
2018-12-04T20:45:15.287Z,287.17
2018-12-04T20:47:45.156Z,281.17
2018-12-04T20:50:14.731Z,282.43
2018-12-04T20:52:44.127Z,282.90
2018-12-04T20:55:13.517Z,278.97
2018-12-04T20:57:42.827Z,288.13
2018-12-04T21:00:13.260Z,285.03
2018-12-04T21:02:42.533Z,280.23
2018-12-04T21:05:11.946Z,277.97
2018-12-04T21:07:41.848Z,285.30
2018-12-04T21:10:11.169Z,286.17
2018-12-04T21:12:40.576Z,307.13
2018-12-04T21:15:10.449Z,304.10
2018-12-04T21:17:39.690Z,295.27
2018-12-04T21:20:09.221Z,315.33
2018-12-04T21:22:38.709Z,321.03
2018-12-04T21:25:08.012Z,319.40
2018-12-04T21:27:43.135Z,331.70
2018-12-04T21:30:17.954Z,327.97
2018-12-04T21:32:52.680Z,307.63
2018-12-04T21:35:27.297Z,280.87
2018-12-04T21:38:02.178Z,281.47
2018-12-04T21:41:07.772Z,275.93
2018-12-04T21:43:42.572Z,366.43
2018-12-04T21:46:17.219Z,352.40
2018-12-04T21:48:47.631Z,361.00
2018-12-04T21:51:16.919Z,356.63
2018-12-04T21:53:46.322Z,341.53
2018-12-04T21:56:16.147Z,332.97
2018-12-04T21:58:45.903Z,337.17
2018-12-04T22:01:15.327Z,349.43
2018-12-04T22:03:45.288Z,357.23
2018-12-04T22:06:14.756Z,355.63
2018-12-04T22:08:44.328Z,354.50
2018-12-04T22:11:14.209Z,361.53
2018-12-04T22:13:43.593Z,362.23
2018-12-04T22:16:13.316Z,361.63
2018-12-04T22:18:42.588Z,371.63
2018-12-04T22:21:12.090Z,355.63
2018-12-04T22:23:41.400Z,345.30
2018-12-04T22:26:10.817Z,330.20
2018-12-04T22:28:40.365Z,329.23
2018-12-04T22:31:09.968Z,327.57
2018-12-04T22:33:39.441Z,325.93
2018-12-04T22:36:09.328Z,333.90
2018-12-04T22:38:38.797Z,337.50
2018-12-04T22:41:08.300Z,334.60
2018-12-04T22:43:37.892Z,331.73
2018-12-04T22:46:07.325Z,343.13
2018-12-04T22:48:36.885Z,336.10
2018-12-04T22:51:06.525Z,330.03
2018-12-04T22:53:35.956Z,323.70
2018-12-04T22:56:05.571Z,326.77
2018-12-04T22:58:34.973Z,319.47
2018-12-04T23:01:04.549Z,315.37
2018-12-04T23:03:35.888Z,312.93
2018-12-04T23:06:05.571Z,296.93
2018-12-04T23:08:35.412Z,292.17
2018-12-04T23:11:05.027Z,302.03
2018-12-04T23:13:34.482Z,310.80
2018-12-04T23:16:04.170Z,321.93
2018-12-04T23:18:33.887Z,312.83
2018-12-04T23:21:03.388Z,320.57
2018-12-04T23:23:32.920Z,329.33
2018-12-04T23:26:02.377Z,319.50
2018-12-04T23:28:33.264Z,323.27
2018-12-04T23:31:02.545Z,325.00
2018-12-04T23:33:31.857Z,323.57
2018-12-04T23:36:01.634Z,320.07
2018-12-04T23:38:31.076Z,324.03
2018-12-04T23:41:00.379Z,332.23
2018-12-04T23:43:29.864Z,315.70
2018-12-04T23:45:59.284Z,316.00
2018-12-04T23:48:28.962Z,314.27
2018-12-04T23:50:58.458Z,345.00
2018-12-04T23:53:28.232Z,348.43
2018-12-04T23:55:57.692Z,340.27
2018-12-04T23:58:27.498Z,331.37
